Time;durP1;ratioP1;P1;durP2;ratioP2;P2;SDS_P1;SDS_P2;PMS_P1;PMS_P2;Temp;Humidity;BMP_temperature;BMP_pressure;BME280_temperature;BME280_humidity;BME280_pressure;Samples;Min_cycle;Max_cycle;Signal;HPM_P1;HPM_P2
2022/01/30 00:00:57;;;;;;;23.40;4.30;;;6.80;99.90;;;;;;5073183;28;20227;-79
2022/01/30 00:03:23;;;;;;;16.27;4.00;;;6.80;99.90;;;;;;5073712;28;20193;-78
2022/01/30 00:05:48;;;;;;;22.60;4.90;;;6.80;99.90;;;;;;5073341;28;20260;-79
2022/01/30 00:08:14;;;;;;;11.77;3.90;;;6.90;99.90;;;;;;5073331;28;20653;-78
2022/01/30 00:10:41;;;;;;;22.70;3.47;;;6.80;99.90;;;;;;5073371;28;20177;-79
2022/01/30 00:13:14;;;;;;;21.48;4.60;;;6.80;99.90;;;;;;5072961;28;20562;-80
2022/01/30 00:15:44;;;;;;;15.65;3.60;;;6.80;99.90;;;;;;5073372;28;20182;-80
2022/01/30 00:18:27;;;;;;;13.68;3.53;;;6.80;99.90;;;;;;5073153;28;20582;-79
2022/01/30 00:21:06;;;;;;;15.77;4.20;;;6.80;99.90;;;;;;5071753;28;20196;-78
2022/01/30 00:23:34;;;;;;;21.25;4.72;;;6.90;99.90;;;;;;5073243;28;20173;-79
2022/01/30 00:26:03;;;;;;;16.60;4.32;;;6.80;99.90;;;;;;5072967;28;20661;-79
2022/01/30 00:28:31;;;;;;;18.98;4.35;;;6.80;99.90;;;;;;5073031;28;20181;-80
2022/01/30 00:30:57;;;;;;;13.13;4.05;;;6.70;99.90;;;;;;5072781;28;20177;-79
2022/01/30 00:33:23;;;;;;;13.10;3.53;;;6.70;99.90;;;;;;5073040;28;20201;-80
2022/01/30 00:35:48;;;;;;;22.43;4.77;;;6.60;99.90;;;;;;5073109;28;20201;-80
2022/01/30 00:38:20;;;;;;;23.20;4.77;;;6.60;99.90;;;;;;5072957;28;20204;-79
2022/01/30 00:40:46;;;;;;;14.43;3.33;;;6.50;99.90;;;;;;5072774;28;20174;-80
2022/01/30 00:43:12;;;;;;;17.30;4.35;;;6.50;99.90;;;;;;5071493;28;20193;-80
2022/01/30 00:45:39;;;;;;;15.77;4.00;;;6.50;99.90;;;;;;5073314;28;20174;-80
2022/01/30 00:48:05;;;;;;;18.40;5.53;;;6.50;99.90;;;;;;5073680;28;20182;-79
2022/01/30 00:50:32;;;;;;;15.73;3.45;;;6.50;99.90;;;;;;5073063;28;20213;-80
2022/01/30 00:52:58;;;;;;;26.10;3.95;;;6.60;99.90;;;;;;5072558;28;20205;-81
2022/01/30 00:55:26;;;;;;;16.88;4.22;;;6.40;99.90;;;;;;5073216;28;20169;-79
2022/01/30 00:57:53;;;;;;;13.77;4.82;;;6.40;99.90;;;;;;5073009;28;20169;-80
2022/01/30 01:00:19;;;;;;;19.60;4.43;;;6.20;99.90;;;;;;5072802;28;20190;-80
2022/01/30 01:02:45;;;;;;;11.15;3.22;;;6.20;99.90;;;;;;5072308;28;20670;-78
2022/01/30 01:05:12;;;;;;;18.80;4.10;;;6.20;99.90;;;;;;5072654;28;20184;-80
2022/01/30 01:07:44;;;;;;;13.93;4.55;;;6.10;99.90;;;;;;5072824;28;20174;-78
2022/01/30 01:10:18;;;;;;;20.10;4.20;;;6.10;99.90;;;;;;5072740;28;20280;-79
2022/01/30 01:23:21;;;;;;;16.35;3.78;;;5.90;99.90;;;;;;5072478;28;20180;-78
2022/01/30 01:23:47;;;;;;;17.92;3.80;;;5.80;99.90;;;;;;5072632;28;20180;-80
2022/01/30 01:26:14;;;;;;;15.75;4.00;;;5.80;99.90;;;;;;5072628;28;20174;-78
2022/01/30 01:28:40;;;;;;;18.88;3.28;;;5.70;99.90;;;;;;5072344;28;20588;-80
2022/01/30 01:31:06;;;;;;;19.07;4.10;;;5.70;99.90;;;;;;5072191;28;20177;-79
2022/01/30 01:33:59;;;;;;;20.27;4.00;;;5.70;99.90;;;;;;5072406;28;20195;-79
2022/01/30 01:36:25;;;;;;;19.23;4.60;;;5.70;99.90;;;;;;5073480;28;20181;-81
2022/01/30 01:38:51;;;;;;;21.17;3.80;;;5.70;99.90;;;;;;5076313;28;20634;-79
2022/01/30 01:41:21;;;;;;;17.25;6.05;;;5.70;99.90;;;;;;5077548;28;20184;-79
2022/01/30 01:43:49;;;;;;;24.38;4.70;;;5.60;99.90;;;;;;5082029;28;20173;-78
2022/01/30 01:46:20;;;;;;;18.88;4.05;;;5.50;99.90;;;;;;5075983;28;20252;-80
2022/01/30 01:48:49;;;;;;;15.50;4.90;;;5.50;99.90;;;;;;5076238;28;20205;-79
2022/01/30 01:51:19;;;;;;;15.32;3.70;;;5.50;99.90;;;;;;5075594;28;20173;-79
2022/01/30 01:53:48;;;;;;;17.33;3.25;;;5.50;99.90;;;;;;5074720;28;20718;-80
2022/01/30 01:56:15;;;;;;;15.90;3.55;;;5.50;99.90;;;;;;5075935;28;20239;-80
2022/01/30 01:58:41;;;;;;;19.20;4.00;;;5.50;99.90;;;;;;5075947;28;20227;-78
2022/01/30 02:01:06;;;;;;;14.63;4.13;;;5.50;99.90;;;;;;5075756;28;20191;-80
2022/01/30 02:03:35;;;;;;;18.30;4.03;;;5.50;99.90;;;;;;5076031;28;20279;-78
2022/01/30 02:06:03;;;;;;;17.33;3.50;;;5.50;99.90;;;;;;5075886;28;20513;-79
2022/01/30 02:08:41;;;;;;;19.65;4.40;;;5.40;99.90;;;;;;5075639;28;20173;-78
2022/01/30 02:11:12;;;;;;;24.30;3.58;;;5.40;99.90;;;;;;5075227;28;20174;-80
2022/01/30 02:24:45;;;;;;;19.70;4.90;;;5.30;99.90;;;;;;5075559;28;20614;-79
2022/01/30 02:27:18;;;;;;;15.30;4.15;;;5.30;99.90;;;;;;5075343;28;20251;-79
2022/01/30 02:29:43;;;;;;;24.63;5.38;;;5.30;99.90;;;;;;5075116;28;20201;-79
2022/01/30 02:32:09;;;;;;;12.07;3.80;;;5.30;99.90;;;;;;5074789;28;20185;-79
2022/01/30 02:34:35;;;;;;;13.30;3.87;;;5.30;99.90;;;;;;5075206;28;20436;-79
2022/01/30 02:37:02;;;;;;;14.17;4.00;;;5.20;99.90;;;;;;5074982;28;20182;-78
2022/01/30 02:39:28;;;;;;;24.38;4.60;;;5.20;99.90;;;;;;5075158;28;20411;-78
2022/01/30 02:41:54;;;;;;;16.23;3.10;;;5.20;99.90;;;;;;5074642;28;20592;-78
2022/01/30 02:44:47;;;;;;;13.43;3.80;;;5.20;99.90;;;;;;5074918;28;20303;-77
2022/01/30 02:47:20;;;;;;;18.08;4.20;;;5.20;99.90;;;;;;5074199;28;20446;-79
2022/01/30 02:50:08;;;;;;;18.55;3.75;;;5.10;99.90;;;;;;5075000;28;20201;-79
2022/01/30 02:52:32;;;;;;;13.80;4.05;;;5.10;99.90;;;;;;5073546;28;20204;-80
2022/01/30 02:54:57;;;;;;;20.00;5.80;;;5.00;99.90;;;;;;5073595;28;20657;-79
2022/01/30 02:57:23;;;;;;;26.63;5.47;;;5.00;99.90;;;;;;5074766;28;20257;-80
2022/01/30 02:59:50;;;;;;;12.97;3.67;;;5.10;99.90;;;;;;5073531;28;20189;-78
2022/01/30 03:02:16;;;;;;;13.93;2.97;;;5.10;99.90;;;;;;5074229;28;20234;-80
2022/01/30 03:04:41;;;;;;;18.75;4.13;;;5.10;99.90;;;;;;5073449;28;20204;-78
2022/01/30 03:07:07;;;;;;;19.23;4.63;;;5.00;99.90;;;;;;5073053;28;20258;-79
2022/01/30 03:09:33;;;;;;;17.33;4.47;;;5.00;99.90;;;;;;5072915;28;20197;-79
2022/01/30 03:11:59;;;;;;;20.45;3.90;;;4.90;99.90;;;;;;5073944;28;20763;-77
2022/01/30 03:14:25;;;;;;;27.03;3.83;;;5.00;99.90;;;;;;5073035;28;20188;-79
2022/01/30 03:16:50;;;;;;;16.63;4.13;;;5.00;99.90;;;;;;5074371;28;20173;-79
2022/01/30 03:19:16;;;;;;;30.70;3.50;;;4.90;99.90;;;;;;5074096;28;20565;-78
2022/01/30 03:21:41;;;;;;;21.70;3.53;;;4.90;99.90;;;;;;5073779;28;20532;-79
2022/01/30 03:24:07;;;;;;;18.13;4.17;;;5.00;99.90;;;;;;5072864;28;20196;-79
2022/01/30 03:26:37;;;;;;;17.20;3.03;;;4.90;99.90;;;;;;5072810;28;20185;-78
2022/01/30 03:29:06;;;;;;;25.65;4.00;;;4.80;99.90;;;;;;5072824;28;20213;-78
2022/01/30 03:31:37;;;;;;;12.57;4.63;;;4.80;99.90;;;;;;5073448;28;20268;-79
2022/01/30 03:34:04;;;;;;;28.05;4.57;;;4.80;99.90;;;;;;5073980;28;20166;-79
2022/01/30 03:36:29;;;;;;;17.27;4.75;;;4.90;99.90;;;;;;5073945;28;20262;-79
2022/01/30 03:38:55;;;;;;;15.30;4.33;;;4.90;99.90;;;;;;5072641;28;20268;-79
2022/01/30 03:41:21;;;;;;;25.37;5.20;;;4.80;99.90;;;;;;5073202;28;20177;-80
2022/01/30 03:43:47;;;;;;;14.20;3.60;;;4.90;99.90;;;;;;5073655;28;20692;-79
2022/01/30 03:46:12;;;;;;;17.13;4.47;;;4.80;99.90;;;;;;5073887;28;20404;-79
2022/01/30 03:48:38;;;;;;;17.30;4.03;;;4.80;99.90;;;;;;5073730;28;20922;-78
2022/01/30 03:51:04;;;;;;;22.53;3.30;;;4.70;99.90;;;;;;5073474;28;20587;-78
2022/01/30 03:53:31;;;;;;;17.20;3.57;;;4.70;99.90;;;;;;5073522;28;20238;-78
2022/01/30 03:55:57;;;;;;;21.27;4.30;;;4.80;99.90;;;;;;5073458;28;20294;-79
2022/01/30 03:58:23;;;;;;;20.03;5.37;;;4.70;99.90;;;;;;5073441;28;20654;-80
2022/01/30 04:00:48;;;;;;;23.77;4.23;;;4.70;99.90;;;;;;5072868;28;20176;-79
2022/01/30 04:03:14;;;;;;;20.33;4.93;;;4.70;99.90;;;;;;5073511;28;20196;-80
2022/01/30 04:05:40;;;;;;;17.20;2.80;;;4.60;99.90;;;;;;5072361;28;20178;-81
2022/01/30 04:08:06;;;;;;;11.88;3.50;;;4.60;99.90;;;;;;5072171;28;20177;-77
2022/01/30 04:10:32;;;;;;;18.00;4.18;;;4.70;99.90;;;;;;5073467;28;20575;-80
2022/01/30 04:12:58;;;;;;;21.75;3.60;;;4.70;99.90;;;;;;5072996;28;20207;-80
2022/01/30 04:15:24;;;;;;;16.60;4.20;;;4.70;99.90;;;;;;5072360;28;20177;-81
2022/01/30 04:17:50;;;;;;;12.10;3.40;;;4.70;99.90;;;;;;5073174;28;20177;-81
2022/01/30 04:20:16;;;;;;;11.80;3.07;;;4.70;99.90;;;;;;5073362;28;20200;-80
2022/01/30 04:22:41;;;;;;;18.57;3.90;;;4.70;99.90;;;;;;5072687;28;20435;-78
2022/01/30 04:25:07;;;;;;;12.83;4.17;;;4.70;99.90;;;;;;5072064;28;20423;-80
2022/01/30 04:27:33;;;;;;;15.00;3.10;;;4.70;99.90;;;;;;5071773;28;20648;-80
2022/01/30 04:29:59;;;;;;;20.53;4.80;;;4.70;99.90;;;;;;5071713;28;20475;-80
2022/01/30 04:32:26;;;;;;;23.57;4.37;;;4.70;99.90;;;;;;5072713;28;20239;-81
2022/01/30 04:34:57;;;;;;;23.98;4.75;;;4.80;99.90;;;;;;5073132;28;20465;-81
2022/01/30 04:37:32;;;;;;;15.27;4.38;;;4.80;99.90;;;;;;5072954;28;20193;-80
2022/01/30 04:40:32;;;;;;;22.92;4.07;;;4.70;99.90;;;;;;5072877;28;20184;-80
2022/01/30 04:56:55;;;;;;;23.85;4.00;;;4.70;99.90;;;;;;5073109;28;20272;-80
2022/01/30 04:59:48;;;;;;;27.70;4.80;;;4.70;99.90;;;;;;5073105;28;20205;-80
2022/01/30 05:09:31;;;;;;;15.82;2.90;;;5.10;99.90;;;;;;5071537;28;20279;-79
2022/01/30 05:11:57;;;;;;;15.70;3.27;;;5.10;99.90;;;;;;5073133;28;20677;-80
2022/01/30 05:14:25;;;;;;;9.37;3.43;;;5.20;99.90;;;;;;5075239;28;20450;-81
2022/01/30 05:16:51;;;;;;;12.40;3.70;;;5.20;99.90;;;;;;5076591;28;20611;-80
2022/01/30 05:19:17;;;;;;;19.63;4.03;;;5.10;99.90;;;;;;5076394;28;20268;-80
2022/01/30 05:21:43;;;;;;;16.60;3.57;;;5.10;99.90;;;;;;5074972;28;20436;-80
2022/01/30 05:24:09;;;;;;;22.57;4.10;;;5.20;99.90;;;;;;5076419;28;20888;-81
2022/01/30 05:26:41;;;;;;;13.60;2.20;;;5.30;99.90;;;;;;5076351;28;20518;-80
2022/01/30 05:29:07;;;;;;;19.83;3.67;;;5.30;99.90;;;;;;5076289;28;20217;-81
2022/01/30 05:31:33;;;;;;;15.50;3.23;;;5.20;99.90;;;;;;5075902;28;20535;-80
2022/01/30 05:33:59;;;;;;;15.40;3.20;;;5.10;99.90;;;;;;5076146;28;20938;-80
2022/01/30 05:36:24;;;;;;;9.53;2.20;;;5.10;99.90;;;;;;5076080;28;20426;-79
2022/01/30 05:38:51;;;;;;;18.73;2.83;;;5.10;99.90;;;;;;5076191;28;20423;-81
2022/01/30 05:41:17;;;;;;;11.23;2.78;;;5.10;99.90;;;;;;5075568;28;20653;-81
2022/01/30 05:43:45;;;;;;;16.42;3.22;;;5.10;99.90;;;;;;5076034;28;20193;-81
2022/01/30 05:46:16;;;;;;;14.13;3.90;;;5.00;99.90;;;;;;5075981;28;20705;-80
2022/01/30 05:48:42;;;;;;;17.63;3.58;;;4.90;99.90;;;;;;5075877;28;20178;-81
2022/01/30 05:51:08;;;;;;;27.80;4.32;;;4.90;99.90;;;;;;5075545;28;20177;-81
2022/01/30 05:53:34;;;;;;;17.43;3.87;;;4.70;99.90;;;;;;5074946;28;20585;-79
2022/01/30 05:55:59;;;;;;;23.27;4.90;;;4.70;99.90;;;;;;5075965;28;20180;-80
2022/01/30 05:58:25;;;;;;;17.20;3.67;;;4.70;99.90;;;;;;5074462;28;20213;-80
2022/01/30 06:00:50;;;;;;;25.27;3.70;;;4.70;99.90;;;;;;5075316;28;20811;-80
2022/01/30 06:03:16;;;;;;;14.40;4.83;;;4.70;99.90;;;;;;5074391;28;20673;-80
2022/01/30 06:05:45;;;;;;;17.30;3.30;;;4.70;99.90;;;;;;5075788;28;20601;-81
2022/01/30 06:08:15;;;;;;;13.40;2.75;;;4.70;99.90;;;;;;5074501;28;20542;-79
2022/01/30 06:10:40;;;;;;;19.33;3.75;;;4.60;99.90;;;;;;5075612;28;20205;-80
2022/01/30 06:13:06;;;;;;;12.20;2.60;;;4.60;99.90;;;;;;5075252;28;20204;-80
2022/01/30 06:15:31;;;;;;;16.43;4.60;;;4.60;99.90;;;;;;5075709;28;20208;-80
2022/01/30 06:17:57;;;;;;;15.77;3.80;;;4.60;99.90;;;;;;5075630;28;20257;-80
2022/01/30 06:20:22;;;;;;;13.33;3.67;;;4.50;99.90;;;;;;5074171;28;20193;-80
2022/01/30 06:22:48;;;;;;;9.00;2.63;;;4.60;99.90;;;;;;5074397;28;20705;-81
2022/01/30 06:25:14;;;;;;;18.20;3.60;;;4.60;99.90;;;;;;5075271;28;20553;-79
2022/01/30 06:27:40;;;;;;;19.52;4.32;;;4.50;99.90;;;;;;5075333;28;20218;-81
2022/01/30 06:30:07;;;;;;;20.53;3.90;;;4.50;99.90;;;;;;5075158;28;20703;-79
2022/01/30 06:32:33;;;;;;;14.90;3.60;;;4.50;99.90;;;;;;5074749;28;20432;-80
2022/01/30 06:34:59;;;;;;;9.80;2.20;;;4.50;99.90;;;;;;5075125;28;20269;-80
2022/01/30 06:37:24;;;;;;;15.93;3.57;;;4.40;99.90;;;;;;5073864;28;20412;-81
2022/01/30 06:39:50;;;;;;;21.73;4.27;;;4.50;99.90;;;;;;5075041;28;20257;-79
2022/01/30 06:42:16;;;;;;;7.03;2.20;;;4.40;99.90;;;;;;5074619;28;20688;-80
2022/01/30 06:44:43;;;;;;;18.97;2.57;;;4.40;99.90;;;;;;5073604;28;20239;-80
2022/01/30 06:47:09;;;;;;;14.48;3.17;;;4.50;99.90;;;;;;5074773;28;20412;-80
2022/01/30 06:49:34;;;;;;;22.27;3.70;;;4.40;99.90;;;;;;5074703;28;20252;-79
2022/01/30 06:52:00;;;;;;;19.10;3.00;;;4.30;99.90;;;;;;5074434;28;20745;-81
2022/01/30 06:54:26;;;;;;;17.90;3.90;;;4.40;99.90;;;;;;5074773;28;20239;-79
2022/01/30 06:56:51;;;;;;;17.17;3.37;;;4.30;99.90;;;;;;5074547;28;20185;-80
2022/01/30 06:59:17;;;;;;;15.83;3.00;;;4.30;99.90;;;;;;5074437;28;20284;-80
2022/01/30 07:01:42;;;;;;;20.60;4.00;;;4.20;99.90;;;;;;5074310;28;20204;-80
2022/01/30 07:04:08;;;;;;;12.13;3.40;;;4.20;99.90;;;;;;5074883;28;20235;-79
2022/01/30 07:06:34;;;;;;;28.23;3.87;;;4.20;99.90;;;;;;5074695;28;20177;-80
2022/01/30 07:08:59;;;;;;;14.27;3.70;;;4.30;99.90;;;;;;5074557;28;20705;-80
2022/01/30 07:11:25;;;;;;;21.07;4.50;;;4.20;99.90;;;;;;5074103;28;20180;-79
2022/01/30 07:13:50;;;;;;;19.77;4.00;;;4.20;99.90;;;;;;5074425;28;20186;-80
2022/01/30 07:16:16;;;;;;;13.40;2.90;;;4.30;99.90;;;;;;5074385;28;20177;-81
2022/01/30 07:18:42;;;;;;;13.03;3.00;;;4.30;99.90;;;;;;5074247;28;20173;-80
2022/01/30 07:21:09;;;;;;;12.27;2.33;;;4.40;99.90;;;;;;5073697;28;20585;-79
2022/01/30 07:23:36;;;;;;;22.05;3.85;;;4.30;99.90;;;;;;5074115;28;20603;-81
2022/01/30 07:26:01;;;;;;;12.63;3.17;;;4.40;99.90;;;;;;5073859;28;20180;-81
2022/01/30 07:28:27;;;;;;;15.70;3.03;;;4.40;99.90;;;;;;5073850;28;20274;-80
2022/01/30 07:30:53;;;;;;;18.40;3.00;;;4.40;99.90;;;;;;5073524;28;20206;-80
2022/01/30 07:33:18;;;;;;;13.23;2.30;;;4.30;99.90;;;;;;5072305;28;20198;-80
2022/01/30 07:35:44;;;;;;;12.53;2.50;;;4.20;99.90;;;;;;5072387;28;20615;-79
2022/01/30 07:38:10;;;;;;;13.45;3.28;;;4.20;99.90;;;;;;5073840;28;20177;-81
2022/01/30 07:40:37;;;;;;;22.13;3.70;;;4.30;99.90;;;;;;5073636;28;20692;-81
2022/01/30 07:43:03;;;;;;;19.20;3.67;;;4.30;99.90;;;;;;5073297;28;20531;-80
2022/01/30 07:45:29;;;;;;;22.67;4.20;;;4.40;99.90;;;;;;5073681;28;20598;-81
2022/01/30 07:47:54;;;;;;;19.03;5.10;;;4.40;99.90;;;;;;5073714;28;20681;-80
2022/01/30 07:50:20;;;;;;;22.90;2.90;;;4.30;99.90;;;;;;5072270;28;20509;-81
2022/01/30 07:52:46;;;;;;;12.27;2.80;;;4.30;99.90;;;;;;5073293;28;20197;-81
2022/01/30 07:55:11;;;;;;;16.67;3.33;;;4.40;99.90;;;;;;5073701;28;20180;-81
2022/01/30 07:57:37;;;;;;;18.43;2.97;;;4.50;99.90;;;;;;5073644;28;20174;-79
2022/01/30 08:00:06;;;;;;;12.80;2.90;;;4.40;99.90;;;;;;5072400;28;20212;-79
2022/01/30 08:02:32;;;;;;;13.77;3.78;;;4.40;99.90;;;;;;5073512;28;20941;-81
2022/01/30 08:04:57;;;;;;;16.60;3.50;;;4.40;99.90;;;;;;5072354;28;20181;-80
2022/01/30 08:07:23;;;;;;;11.50;3.93;;;4.40;99.90;;;;;;5073375;28;20250;-80
2022/01/30 08:09:49;;;;;;;18.73;3.83;;;4.50;99.90;;;;;;5073321;28;20201;-81
2022/01/30 08:12:15;;;;;;;11.83;4.40;;;4.40;99.90;;;;;;5072879;28;20220;-80
2022/01/30 08:14:40;;;;;;;17.83;5.50;;;4.60;99.90;;;;;;5073164;28;20494;-81
2022/01/30 08:17:06;;;;;;;21.07;4.07;;;4.60;99.90;;;;;;5073505;28;20414;-80
2022/01/30 08:19:32;;;;;;;18.70;3.90;;;4.60;99.90;;;;;;5073132;28;20188;-80
2022/01/30 08:22:00;;;;;;;15.00;2.63;;;4.60;99.90;;;;;;5071605;28;20201;-81
2022/01/30 08:24:25;;;;;;;11.50;3.17;;;4.70;99.90;;;;;;5072262;28;20227;-81
2022/01/30 08:26:51;;;;;;;20.23;4.23;;;4.80;99.90;;;;;;5073266;28;20186;-81
2022/01/30 08:29:17;;;;;;;19.97;3.13;;;4.90;99.90;;;;;;5072960;28;20307;-80
2022/01/30 08:31:43;;;;;;;14.37;3.53;;;4.80;99.90;;;;;;5072638;28;20514;-80
2022/01/30 08:34:08;;;;;;;25.60;3.83;;;4.80;99.90;;;;;;5073071;28;20241;-80
2022/01/30 08:36:34;;;;;;;17.93;4.37;;;5.00;99.90;;;;;;5073050;28;20181;-80
2022/01/30 08:39:00;;;;;;;23.67;4.37;;;5.00;99.90;;;;;;5073126;28;20181;-81
2022/01/30 08:41:26;;;;;;;14.68;3.80;;;5.10;99.90;;;;;;5072766;28;20212;-80
2022/01/30 08:43:51;;;;;;;15.57;3.50;;;5.10;99.90;;;;;;5072965;28;20176;-81
2022/01/30 08:46:17;;;;;;;16.57;3.23;;;5.20;99.90;;;;;;5075750;28;20277;-80
2022/01/30 08:48:43;;;;;;;16.67;3.80;;;5.30;99.90;;;;;;5077030;28;20222;-82
2022/01/30 08:51:09;;;;;;;10.63;2.43;;;5.40;99.90;;;;;;5076818;28;20180;-81
2022/01/30 08:53:34;;;;;;;22.70;4.40;;;5.40;99.90;;;;;;5077031;28;20896;-81
2022/01/30 08:56:00;;;;;;;14.67;3.43;;;5.50;99.90;;;;;;5076872;28;20423;-81
2022/01/30 08:58:26;;;;;;;15.97;3.40;;;5.50;99.90;;;;;;5076923;28;20181;-79
2022/01/30 09:00:51;;;;;;;13.50;3.60;;;5.60;99.90;;;;;;5076544;28;20190;-80
2022/01/30 09:03:17;;;;;;;8.23;2.43;;;5.60;99.90;;;;;;5075535;28;20216;-78
2022/01/30 09:05:43;;;;;;;10.40;3.70;;;5.60;99.90;;;;;;5077008;28;20648;-79
2022/01/30 09:08:08;;;;;;;15.83;3.40;;;5.60;99.90;;;;;;5076786;28;20220;-78
2022/01/30 09:10:36;;;;;;;20.10;3.07;;;5.70;99.90;;;;;;5076659;28;20246;-79
2022/01/30 09:13:03;;;;;;;14.38;2.50;;;5.80;99.90;;;;;;5076413;28;20205;-79
2022/01/30 09:15:29;;;;;;;12.25;2.80;;;5.70;99.90;;;;;;5076771;28;20215;-79
2022/01/30 09:17:57;;;;;;;13.27;3.70;;;5.70;99.90;;;;;;5076658;28;20252;-78
2022/01/30 09:20:23;;;;;;;18.10;4.20;;;5.80;99.90;;;;;;5076436;28;20184;-78
2022/01/30 09:22:51;;;;;;;14.20;3.78;;;5.80;99.90;;;;;;5076047;28;20201;-78
2022/01/30 09:25:17;;;;;;;15.30;3.60;;;5.90;99.90;;;;;;5076390;28;20177;-77
2022/01/30 09:27:43;;;;;;;19.35;4.57;;;5.90;99.90;;;;;;5076396;28;20208;-77
2022/01/30 09:30:10;;;;;;;18.27;3.20;;;5.90;99.90;;;;;;5076110;28;20236;-78
2022/01/30 09:32:36;;;;;;;15.63;2.90;;;5.90;99.90;;;;;;5075931;28;20197;-79
2022/01/30 09:35:02;;;;;;;11.05;3.72;;;5.90;99.90;;;;;;5076411;28;20169;-77
2022/01/30 09:37:28;;;;;;;13.90;3.38;;;6.00;99.90;;;;;;5076217;28;20518;-78
2022/01/30 09:39:54;;;;;;;16.77;4.70;;;6.10;99.90;;;;;;5076164;28;20238;-78
2022/01/30 09:42:23;;;;;;;11.93;2.90;;;6.10;99.90;;;;;;5075702;28;20601;-78
2022/01/30 09:44:49;;;;;;;17.33;3.75;;;6.20;99.90;;;;;;5074852;28;20178;-76
2022/01/30 09:47:17;;;;;;;23.10;3.13;;;6.20;99.90;;;;;;5076040;28;20250;-77
2022/01/30 09:49:48;;;;;;;10.25;3.40;;;6.30;99.90;;;;;;5069989;28;20212;-79
2022/01/30 09:52:15;;;;;;;14.60;3.20;;;6.40;99.90;;;;;;5055456;28;20303;-78
2022/01/30 09:54:41;;;;;;;12.27;3.20;;;6.20;99.90;;;;;;5055279;28;20186;-77
2022/01/30 09:57:08;;;;;;;11.90;3.73;;;6.30;99.90;;;;;;5055592;28;20185;-79
2022/01/30 09:59:33;;;;;;;13.88;3.67;;;6.50;99.90;;;;;;5056664;28;20174;-76
2022/01/30 10:02:07;;;;;;;11.07;2.27;;;6.60;99.90;;;;;;5055642;28;20228;-79
2022/01/30 10:04:34;;;;;;;14.52;3.63;;;6.60;99.90;;;;;;5055668;28;20180;-79
2022/01/30 10:07:06;;;;;;;9.55;3.00;;;6.60;99.90;;;;;;5055538;28;20175;-78
2022/01/30 10:09:36;;;;;;;8.40;2.42;;;6.70;99.90;;;;;;5055641;28;20202;-79
2022/01/30 10:12:16;;;;;;;13.27;3.67;;;6.90;99.90;;;;;;5055602;28;20192;-80
2022/01/30 10:15:07;;;;;;;10.13;2.70;;;7.10;99.90;;;;;;5055753;28;20154;-81
2022/01/30 10:17:41;;;;;;;14.07;2.78;;;7.10;99.90;;;;;;5054858;28;20178;-80
2022/01/30 10:20:12;;;;;;;12.18;2.60;;;7.00;99.90;;;;;;5056398;28;20185;-79
2022/01/30 10:22:51;;;;;;;21.40;3.75;;;7.00;99.90;;;;;;5055057;28;20684;-80
2022/01/30 10:25:25;;;;;;;13.40;4.25;;;7.00;99.90;;;;;;5055568;28;20189;-78
2022/01/30 10:28:06;;;;;;;18.88;3.50;;;7.00;99.90;;;;;;5055413;28;20578;-78
2022/01/30 10:30:53;;;;;;;22.63;5.47;;;7.10;99.90;;;;;;5055250;28;20212;-80
2022/01/30 10:33:21;;;;;;;20.48;5.22;;;7.10;99.90;;;;;;5055540;28;20662;-78
2022/01/30 10:35:52;;;;;;;19.85;3.38;;;7.30;99.90;;;;;;5056061;28;20174;-79
2022/01/30 10:38:23;;;;;;;12.43;3.20;;;7.50;99.90;;;;;;5056597;28;20169;-80
2022/01/30 10:40:53;;;;;;;10.88;3.03;;;7.80;99.90;;;;;;5055752;28;20531;-80
2022/01/30 10:43:19;;;;;;;14.73;3.80;;;7.80;99.90;;;;;;5055724;28;20205;-80
2022/01/30 10:45:45;;;;;;;20.70;4.20;;;7.80;99.90;;;;;;5056318;28;20178;-79
2022/01/30 10:48:11;;;;;;;6.67;2.70;;;7.60;99.90;;;;;;5055613;28;20182;-80
2022/01/30 10:50:40;;;;;;;15.25;3.03;;;7.40;99.90;;;;;;5054925;28;20300;-79
2022/01/30 10:53:05;;;;;;;8.00;2.83;;;7.40;99.90;;;;;;5055254;28;20199;-80
2022/01/30 10:55:33;;;;;;;9.17;3.30;;;7.50;99.90;;;;;;5054950;28;20182;-79
2022/01/30 10:58:01;;;;;;;10.88;2.47;;;7.30;99.90;;;;;;5055641;28;20271;-79
2022/01/30 11:00:59;;;;;;;18.05;3.67;;;7.30;99.90;;;;;;5055847;28;20183;-80
2022/01/30 11:03:45;;;;;;;20.90;4.15;;;7.70;99.90;;;;;;5004922;28;20211;-79
2022/01/30 11:06:14;;;;;;;12.05;3.20;;;7.90;99.90;;;;;;5054798;28;20186;-79
2022/01/30 11:08:44;;;;;;;13.38;2.60;;;7.90;99.90;;;;;;5053512;28;20281;-79
2022/01/30 11:11:30;;;;;;;17.58;4.05;;;7.90;99.90;;;;;;5054090;28;20256;-80
2022/01/30 11:19:17;;;;;;;12.35;3.58;;;7.80;99.90;;;;;;5054919;28;20193;-79
2022/01/30 11:21:55;;;;;;;20.02;5.05;;;7.70;99.90;;;;;;5054220;28;20196;-80
2022/01/30 11:24:24;;;;;;;15.43;4.45;;;7.60;99.90;;;;;;5061331;28;20227;-79
2022/01/30 11:26:50;;;;;;;23.40;4.15;;;7.60;99.90;;;;;;5054619;28;20170;-79
2022/01/30 11:29:20;;;;;;;21.83;3.63;;;7.60;99.90;;;;;;5053769;28;20311;-78
2022/01/30 11:31:46;;;;;;;20.60;5.28;;;7.50;99.90;;;;;;5053835;28;20431;-79
2022/01/30 11:34:12;;;;;;;26.00;4.10;;;7.50;99.90;;;;;;5054236;28;20179;-79
2022/01/30 11:36:41;;;;;;;17.63;5.25;;;7.40;99.90;;;;;;5052674;28;20224;-80
2022/01/30 11:39:08;;;;;;;24.70;4.15;;;7.30;99.90;;;;;;5053862;28;20182;-79
2022/01/30 11:41:34;;;;;;;17.33;3.42;;;7.20;99.90;;;;;;5064282;28;20202;-80
2022/01/30 11:44:22;;;;;;;16.85;3.45;;;7.20;99.90;;;;;;5073830;28;20176;-79
2022/01/30 11:46:59;;;;;;;14.77;4.70;;;7.40;99.90;;;;;;5073944;28;20190;-77
2022/01/30 11:49:37;;;;;;;13.55;3.72;;;7.60;99.90;;;;;;5072558;28;20209;-81
2022/01/30 11:52:03;;;;;;;22.85;4.18;;;7.90;99.90;;;;;;5035385;28;20187;-78
2022/01/30 11:54:38;;;;;;;18.92;4.38;;;8.10;99.90;;;;;;5053614;28;20190;-80
2022/01/30 11:57:27;;;;;;;18.23;4.65;;;8.20;99.90;;;;;;5053974;28;20229;-80
2022/01/30 11:59:56;;;;;;;14.05;3.80;;;8.30;99.90;;;;;;5059068;28;20182;-80
2022/01/30 12:02:33;;;;;;;23.83;5.97;;;8.30;99.90;;;;;;5072870;28;20200;-79
2022/01/30 12:04:59;;;;;;;22.58;4.82;;;7.90;99.90;;;;;;5074584;28;20184;-79
2022/01/30 12:07:48;;;;;;;29.85;5.57;;;7.60;99.90;;;;;;5074174;28;20184;-81
2022/01/30 12:10:20;;;;;;;18.67;3.92;;;7.40;99.90;;;;;;5073970;28;20197;-80
2022/01/30 12:12:47;;;;;;;22.45;4.57;;;7.30;99.90;;;;;;5059930;28;20207;-79
2022/01/30 12:15:42;;;;;;;16.00;4.63;;;7.30;99.90;;;;;;5054040;28;20169;-79
2022/01/30 12:18:15;;;;;;;23.95;4.00;;;7.50;99.90;;;;;;5053666;28;20311;-80
2022/01/30 12:21:00;;;;;;;15.85;2.65;;;7.30;99.90;;;;;;5053424;28;20662;-79
2022/01/30 12:23:37;;;;;;;27.23;5.10;;;7.70;99.90;;;;;;5053380;28;20247;-80
2022/01/30 12:26:05;;;;;;;23.35;4.75;;;7.80;99.90;;;;;;5053942;28;20205;-80
2022/01/30 12:28:54;;;;;;;13.15;2.83;;;7.70;99.90;;;;;;5053547;28;20221;-80
2022/01/30 12:31:34;;;;;;;24.58;4.70;;;7.70;99.90;;;;;;5054154;28;20216;-79
2022/01/30 12:34:15;;;;;;;14.00;3.33;;;7.90;99.90;;;;;;5053304;28;20162;-80
2022/01/30 12:36:43;;;;;;;14.10;4.95;;;8.00;99.90;;;;;;5053129;28;20162;-80
2022/01/30 12:39:14;;;;;;;11.05;2.78;;;8.00;99.90;;;;;;5053186;28;20219;-79
2022/01/30 12:41:41;;;;;;;19.25;4.32;;;7.90;99.90;;;;;;5052593;28;20223;-80
2022/01/30 12:44:08;;;;;;;16.73;3.33;;;8.00;99.90;;;;;;5054734;28;20547;-79
2022/01/30 12:46:48;;;;;;;19.88;4.55;;;8.00;99.90;;;;;;5072847;28;20171;-79
2022/01/30 12:49:22;;;;;;;19.35;3.88;;;7.90;99.90;;;;;;5072785;28;20193;-80
2022/01/30 12:52:01;;;;;;;19.50;4.32;;;7.90;99.90;;;;;;5072376;28;20288;-80
2022/01/30 12:54:40;;;;;;;18.10;4.05;;;7.90;99.90;;;;;;5071412;28;20178;-79
2022/01/30 12:57:08;;;;;;;15.52;3.70;;;7.80;99.90;;;;;;5073232;28;20172;-79
2022/01/30 12:59:34;;;;;;;15.65;4.20;;;7.70;99.90;;;;;;5064412;28;20190;-79
2022/01/30 13:02:07;;;;;;;21.85;4.47;;;7.60;99.90;;;;;;5052122;28;20198;-81
2022/01/30 13:04:34;;;;;;;22.35;4.25;;;7.70;99.90;;;;;;5051357;28;20181;-80
2022/01/30 13:06:59;;;;;;;20.92;4.15;;;7.80;99.90;;;;;;5052689;28;20208;-79
2022/01/30 13:09:27;;;;;;;20.23;4.30;;;7.60;99.90;;;;;;5052733;28;20202;-80
2022/01/30 13:11:55;;;;;;;19.95;4.70;;;7.70;99.90;;;;;;5051081;28;20220;-81
2022/01/30 13:14:21;;;;;;;13.23;3.70;;;7.70;99.90;;;;;;5052628;28;20685;-79
2022/01/30 13:16:49;;;;;;;16.02;3.63;;;7.60;99.90;;;;;;5052690;28;20184;-80
2022/01/30 13:19:32;;;;;;;16.23;4.60;;;7.80;99.90;;;;;;5052569;28;20227;-79
2022/01/30 13:21:59;;;;;;;12.60;4.43;;;8.20;99.90;;;;;;5052114;28;20197;-80
2022/01/30 13:24:25;;;;;;;21.38;3.80;;;8.40;99.90;;;;;;5052616;28;20189;-80
2022/01/30 13:27:17;;;;;;;18.67;5.03;;;8.30;99.90;;;;;;5051346;28;20708;-80
2022/01/30 13:29:43;;;;;;;22.33;4.10;;;8.30;99.90;;;;;;5049187;28;20224;-79
2022/01/30 13:32:11;;;;;;;23.53;4.17;;;8.20;99.90;;;;;;5052763;28;20672;-80
2022/01/30 13:34:38;;;;;;;18.00;3.88;;;7.80;99.90;;;;;;5056279;28;20629;-81
2022/01/30 13:37:08;;;;;;;23.35;4.40;;;7.60;99.90;;;;;;5056280;28;20178;-80
2022/01/30 13:39:48;;;;;;;21.52;4.72;;;7.50;99.90;;;;;;5056182;28;20183;-79
2022/01/30 13:47:55;;;;;;;32.00;4.07;;;7.40;99.90;;;;;;5076310;28;20199;-79